createdAt,value
2019-03-25T00:01:41.225Z,92.87
2019-03-25T00:04:13.125Z,92.00
2019-03-25T00:06:45.095Z,90.03
2019-03-25T00:09:16.935Z,92.97
2019-03-25T00:11:48.775Z,92.13
2019-03-25T00:14:20.746Z,93.77
2019-03-25T00:16:53.597Z,97.33
2019-03-25T00:19:25.680Z,98.97
2019-03-25T00:21:58.025Z,101.47
2019-03-25T00:24:38.799Z,96.23
2019-03-25T00:27:04.956Z,103.33
2019-03-25T00:29:36.845Z,105.27
2019-03-25T00:32:10.476Z,107.20
2019-03-25T00:34:42.376Z,104.20
2019-03-25T00:37:14.179Z,102.57
2019-03-25T00:39:46.016Z,103.83
2019-03-25T00:42:17.829Z,101.67
2019-03-25T00:44:49.878Z,104.00
2019-03-25T00:47:21.844Z,100.53
2019-03-25T00:49:53.666Z,105.87
2019-03-25T00:52:25.906Z,101.77
2019-03-25T00:54:59.256Z,102.30
2019-03-25T00:57:31.136Z,105.33
2019-03-25T01:00:04.807Z,105.07
2019-03-25T01:02:37.004Z,101.10
2019-03-25T01:05:09.339Z,96.33
2019-03-25T01:07:41.215Z,98.27
2019-03-25T01:10:13.097Z,97.63
2019-03-25T01:12:44.846Z,95.00
2019-03-25T01:15:16.776Z,96.30
2019-03-25T01:17:48.585Z,93.00
2019-03-25T01:20:20.746Z,91.57
2019-03-25T01:22:53.256Z,91.53
2019-03-25T01:25:26.375Z,94.67
2019-03-25T01:27:58.261Z,91.67
2019-03-25T01:30:30.143Z,94.27
2019-03-25T01:33:01.976Z,89.70
2019-03-25T01:35:33.866Z,89.87
2019-03-25T01:38:05.646Z,87.77
2019-03-25T01:40:37.580Z,89.63
2019-03-25T01:43:09.467Z,88.40
2019-03-25T01:45:41.306Z,87.47
2019-03-25T01:48:13.076Z,84.27
2019-03-25T01:50:45.085Z,83.67
2019-03-25T01:53:17.766Z,81.80
2019-03-25T01:55:49.784Z,80.73
2019-03-25T01:58:21.560Z,79.37
2019-03-25T02:00:53.456Z,78.67
2019-03-25T02:03:25.216Z,76.50
2019-03-25T02:05:57.235Z,77.80
2019-03-25T02:08:29.426Z,73.73
2019-03-25T02:11:01.247Z,62.27
2019-03-25T02:13:33.020Z,53.90
2019-03-25T02:16:04.897Z,44.17
2019-03-25T02:18:36.696Z,45.30
2019-03-25T02:21:10.366Z,44.00
2019-03-25T02:23:42.704Z,37.23
2019-03-25T02:26:14.616Z,35.23
2019-03-25T02:28:46.636Z,34.17
2019-03-25T02:31:18.656Z,28.23
2019-03-25T02:33:50.518Z,24.70
2019-03-25T02:36:22.388Z,26.80
2019-03-25T02:38:54.190Z,26.13
2019-03-25T02:41:26.057Z,25.30
2019-03-25T02:43:57.957Z,24.37
2019-03-25T02:46:29.777Z,23.23
2019-03-25T02:49:01.566Z,20.40
2019-03-25T02:51:33.458Z,24.43
2019-03-25T02:54:05.647Z,22.33
2019-03-25T02:56:37.487Z,20.73
2019-03-25T02:59:09.297Z,20.00
2019-03-25T03:01:41.656Z,18.23
2019-03-25T03:04:13.556Z,18.27
2019-03-25T03:06:45.534Z,16.13
2019-03-25T03:09:17.378Z,14.87
2019-03-25T03:11:49.774Z,15.53
2019-03-25T03:14:22.547Z,16.03
2019-03-25T03:16:54.422Z,13.87
2019-03-25T03:19:26.216Z,14.60
2019-03-25T03:21:58.522Z,13.83
2019-03-25T03:24:30.752Z,12.33
2019-03-25T03:27:02.940Z,12.97
2019-03-25T03:29:34.929Z,11.50
2019-03-25T03:32:06.968Z,11.53
2019-03-25T03:34:38.877Z,10.67
2019-03-25T03:37:11.097Z,10.50
2019-03-25T03:39:42.955Z,11.13
2019-03-25T03:42:15.066Z,11.03
2019-03-25T03:44:47.058Z,11.03
2019-03-25T03:47:19.087Z,10.70
2019-03-25T03:49:51.389Z,10.53
2019-03-25T03:52:23.240Z,10.70
2019-03-25T03:54:55.717Z,10.20
2019-03-25T03:57:27.667Z,11.10
2019-03-25T03:59:59.827Z,10.93
2019-03-25T04:02:31.726Z,12.27
2019-03-25T04:05:04.156Z,11.80
2019-03-25T04:07:35.996Z,11.60
2019-03-25T04:10:07.766Z,10.87
2019-03-25T04:12:39.779Z,11.17
2019-03-25T04:15:15.179Z,10.97
2019-03-25T04:17:47.417Z,12.43
2019-03-25T04:20:19.193Z,11.43
2019-03-25T04:22:54.788Z,12.40
2019-03-25T04:25:27.378Z,12.47
2019-03-25T04:27:59.231Z,12.70
2019-03-25T04:30:31.044Z,12.53
2019-03-25T04:33:03.036Z,12.80
2019-03-25T04:35:35.128Z,12.10
2019-03-25T04:38:06.966Z,13.07
2019-03-25T04:40:39.476Z,12.13
2019-03-25T04:43:11.521Z,13.67
2019-03-25T04:45:43.787Z,13.37
2019-03-25T04:48:16.146Z,13.13
2019-03-25T04:50:47.957Z,11.40
2019-03-25T04:53:20.129Z,13.20
2019-03-25T04:55:52.475Z,11.17
2019-03-25T04:58:24.366Z,11.67
2019-03-25T05:00:56.397Z,13.57
2019-03-25T05:03:28.528Z,12.33
2019-03-25T05:06:00.618Z,13.27
2019-03-25T05:08:32.565Z,12.13
2019-03-25T05:11:04.416Z,11.83
2019-03-25T05:13:36.386Z,12.57
2019-03-25T05:16:08.428Z,12.63
2019-03-25T05:18:40.453Z,12.50
2019-03-25T05:21:12.287Z,12.90
2019-03-25T05:23:47.826Z,13.00
2019-03-25T05:26:20.119Z,12.03
2019-03-25T05:28:52.016Z,12.20
2019-03-25T05:31:24.091Z,12.27
2019-03-25T05:33:56.094Z,13.10
2019-03-25T05:36:28.017Z,11.90
2019-03-25T05:38:59.976Z,12.40
2019-03-25T05:41:31.886Z,12.77
2019-03-25T05:44:03.729Z,11.83
2019-03-25T05:46:35.846Z,13.60
2019-03-25T05:49:07.896Z,12.97
2019-03-25T05:51:39.984Z,12.20
2019-03-25T05:54:11.866Z,12.17
2019-03-25T05:56:44.388Z,11.73
2019-03-25T05:59:16.186Z,12.53
2019-03-25T06:01:47.957Z,12.27
2019-03-25T06:04:20.544Z,11.70
2019-03-25T06:06:52.392Z,12.30
2019-03-25T06:09:25.271Z,12.00
2019-03-25T06:11:57.144Z,12.10
2019-03-25T06:14:29.016Z,12.40
2019-03-25T06:17:00.780Z,12.10
2019-03-25T06:19:32.927Z,12.40
2019-03-25T06:22:04.866Z,12.43
2019-03-25T06:24:37.236Z,11.33
2019-03-25T06:27:14.243Z,11.50
2019-03-25T06:29:44.519Z,11.93
2019-03-25T06:32:16.415Z,11.70
2019-03-25T06:34:48.506Z,11.70
2019-03-25T06:37:20.546Z,11.50
2019-03-25T06:39:52.616Z,11.13
2019-03-25T06:42:24.575Z,11.20
2019-03-25T06:44:56.537Z,9.97
2019-03-25T06:47:28.616Z,10.00
2019-03-25T06:50:00.777Z,10.70
2019-03-25T06:52:33.086Z,10.87
2019-03-25T06:55:07.777Z,10.53
2019-03-25T06:57:40.736Z,12.43
2019-03-25T07:00:13.398Z,11.43
2019-03-25T07:02:45.666Z,9.63
2019-03-25T07:05:17.529Z,9.87
2019-03-25T07:07:49.947Z,9.03
2019-03-25T07:10:33.847Z,10.13
2019-03-25T07:13:06.767Z,10.80
2019-03-25T07:15:38.626Z,10.43
2019-03-25T07:18:10.518Z,9.10
2019-03-25T07:20:42.513Z,9.27
2019-03-25T07:23:14.266Z,9.37
2019-03-25T07:25:52.976Z,8.13
2019-03-25T07:28:25.416Z,7.67
2019-03-25T07:30:57.377Z,7.33
2019-03-25T07:33:29.435Z,7.90
2019-03-25T07:36:01.406Z,8.10
2019-03-25T07:38:33.416Z,7.70
2019-03-25T07:41:05.506Z,7.70
2019-03-25T07:43:37.275Z,7.17
2019-03-25T07:46:09.277Z,8.67
2019-03-25T07:48:41.096Z,7.20
2019-03-25T07:51:14.649Z,7.80
2019-03-25T07:53:46.517Z,7.60
2019-03-25T07:56:18.676Z,6.93
2019-03-25T07:58:51.102Z,6.43
2019-03-25T08:01:23.043Z,5.87
2019-03-25T08:03:54.939Z,7.27
2019-03-25T08:06:26.947Z,7.10
2019-03-25T08:09:03.757Z,8.03
2019-03-25T08:11:32.482Z,6.83
2019-03-25T08:14:04.569Z,5.87
2019-03-25T08:16:36.536Z,7.53
2019-03-25T08:19:08.286Z,8.70
2019-03-25T08:21:40.299Z,10.43
2019-03-25T08:24:12.546Z,16.93
2019-03-25T08:26:48.616Z,14.47
2019-03-25T08:29:21.038Z,8.47
2019-03-25T08:31:53.096Z,6.00
2019-03-25T08:34:24.930Z,6.60
2019-03-25T08:36:56.946Z,5.77
2019-03-25T08:39:28.746Z,5.30
2019-03-25T08:42:00.604Z,6.00
2019-03-25T08:44:32.336Z,5.13
2019-03-25T08:47:04.766Z,5.57
2019-03-25T08:49:36.890Z,5.60
2019-03-25T08:52:08.996Z,5.37
2019-03-25T08:54:40.867Z,5.03
2019-03-25T08:57:13.098Z,5.50
2019-03-25T08:59:45.416Z,5.37
2019-03-25T09:02:17.286Z,4.73
2019-03-25T09:04:49.077Z,4.57
2019-03-25T09:07:21.036Z,4.33
2019-03-25T09:09:52.976Z,4.23
2019-03-25T09:12:25.119Z,4.43
2019-03-25T09:14:58.308Z,4.93
2019-03-25T09:17:30.616Z,4.83
2019-03-25T09:20:06.305Z,4.73
2019-03-25T09:22:38.337Z,4.70
2019-03-25T09:25:10.587Z,3.70
2019-03-25T09:27:43.589Z,3.60
2019-03-25T09:30:22.516Z,4.13
2019-03-25T09:32:54.470Z,3.60
2019-03-25T09:35:26.258Z,3.53
2019-03-25T09:37:58.208Z,3.43
2019-03-25T09:40:30.057Z,3.13
2019-03-25T09:43:02.056Z,2.93
2019-03-25T09:45:33.990Z,2.70
2019-03-25T09:48:06.206Z,3.90
2019-03-25T09:50:38.137Z,3.57
2019-03-25T09:53:10.207Z,3.37
2019-03-25T09:55:42.116Z,3.37
2019-03-25T09:58:14.189Z,3.40
2019-03-25T10:00:46.956Z,2.90
2019-03-25T10:03:18.816Z,3.10
2019-03-25T10:05:50.575Z,3.27
2019-03-25T10:08:22.726Z,3.33
2019-03-25T10:10:54.716Z,3.10
2019-03-25T10:13:26.616Z,2.60
2019-03-25T10:15:58.478Z,5.33
2019-03-25T10:18:30.549Z,3.43
2019-03-25T10:21:02.498Z,3.43
2019-03-25T10:23:34.686Z,3.97
2019-03-25T10:26:06.666Z,4.53
2019-03-25T10:28:48.457Z,4.77
2019-03-25T10:31:17.497Z,4.70
2019-03-25T10:33:50.014Z,4.60
2019-03-25T10:36:21.794Z,4.30
2019-03-25T10:38:53.616Z,2.53
2019-03-25T10:41:25.424Z,2.67
2019-03-25T10:43:57.416Z,4.17
2019-03-25T10:46:29.204Z,3.30
2019-03-25T10:49:01.097Z,3.33
2019-03-25T10:51:32.936Z,3.37
2019-03-25T10:54:04.896Z,3.23
2019-03-25T10:56:36.796Z,5.10
2019-03-25T10:59:08.806Z,3.03
2019-03-25T11:01:41.188Z,4.20
2019-03-25T11:04:13.116Z,4.33
2019-03-25T11:06:45.507Z,3.70
2019-03-25T11:09:17.361Z,4.20
2019-03-25T11:11:49.586Z,6.63
2019-03-25T11:14:21.566Z,4.13
2019-03-25T11:16:53.487Z,3.50
2019-03-25T11:19:25.396Z,7.70
2019-03-25T11:21:57.131Z,4.37
2019-03-25T11:24:29.098Z,4.00
2019-03-25T11:27:01.024Z,5.87
2019-03-25T11:29:33.683Z,5.00
2019-03-25T11:32:06.256Z,3.50
2019-03-25T11:34:38.279Z,4.27
2019-03-25T11:37:10.253Z,8.30
2019-03-25T11:39:42.135Z,3.97
2019-03-25T11:42:13.894Z,4.40
2019-03-25T11:44:45.736Z,6.20
2019-03-25T11:47:18.145Z,4.43
2019-03-25T11:52:35.375Z,4.58
2019-03-25T11:55:07.218Z,4.90
2019-03-25T11:57:39.197Z,3.50
2019-03-25T12:00:11.219Z,5.00
2019-03-25T12:02:43.909Z,4.03
2019-03-25T12:05:15.837Z,2.90
2019-03-25T12:07:48.394Z,4.60
2019-03-25T12:10:20.185Z,3.33
2019-03-25T12:12:52.186Z,3.07
2019-03-25T12:15:24.148Z,3.83
2019-03-25T12:17:56.206Z,3.63
2019-03-25T12:20:28.198Z,4.30
2019-03-25T12:23:00.137Z,3.63
2019-03-25T12:25:32.016Z,3.73
2019-03-25T12:28:03.987Z,4.03
2019-03-25T12:30:41.927Z,4.10
2019-03-25T12:33:14.306Z,4.50
2019-03-25T12:35:46.347Z,4.70
2019-03-25T12:38:18.416Z,3.53
2019-03-25T12:40:50.386Z,3.20
2019-03-25T12:43:22.376Z,3.70
2019-03-25T12:45:54.276Z,3.67
2019-03-25T12:48:26.311Z,3.80
2019-03-25T12:50:58.416Z,3.20
2019-03-25T12:53:31.633Z,3.10
2019-03-25T12:56:03.555Z,5.27
2019-03-25T12:58:35.506Z,4.50
2019-03-25T13:01:07.296Z,5.60
2019-03-25T13:03:40.756Z,4.57
2019-03-25T13:06:13.087Z,4.13
2019-03-25T13:08:45.885Z,4.33
2019-03-25T13:11:17.916Z,5.00
2019-03-25T13:13:50.009Z,3.60
2019-03-25T13:16:21.746Z,3.50
2019-03-25T13:18:53.787Z,3.70
2019-03-25T13:21:25.688Z,3.77
2019-03-25T13:23:57.634Z,3.90
2019-03-25T13:26:29.656Z,3.93
2019-03-25T13:29:02.627Z,3.20
2019-03-25T13:31:34.936Z,8.93
2019-03-25T13:34:07.407Z,3.90
2019-03-25T13:36:39.227Z,4.07
2019-03-25T13:39:11.807Z,4.00
2019-03-25T13:41:43.605Z,3.63
2019-03-25T13:44:15.489Z,3.67
2019-03-25T13:46:47.596Z,3.70
2019-03-25T13:49:19.540Z,3.30
2019-03-25T13:51:51.371Z,3.40
2019-03-25T13:54:23.258Z,3.67
2019-03-25T13:56:55.405Z,2.80
2019-03-25T13:59:28.716Z,3.37
2019-03-25T14:02:00.690Z,4.30
2019-03-25T14:07:11.306Z,3.33
2019-03-25T14:09:43.155Z,3.23
2019-03-25T14:12:15.165Z,2.97
2019-03-25T14:14:46.956Z,3.70
2019-03-25T14:17:19.017Z,3.83
2019-03-25T14:19:51.016Z,4.33
2019-03-25T14:22:22.874Z,3.90
2019-03-25T14:24:54.986Z,4.30
2019-03-25T14:27:27.307Z,4.10
2019-03-25T14:29:59.103Z,5.23
2019-03-25T14:32:31.155Z,4.40
2019-03-25T14:35:05.916Z,4.90
2019-03-25T14:37:38.080Z,5.27
2019-03-25T14:40:11.387Z,5.10
2019-03-25T14:42:43.256Z,5.07
2019-03-25T14:45:25.916Z,5.93
2019-03-25T14:47:48.976Z,5.40
2019-03-25T14:50:20.867Z,5.97
2019-03-25T14:52:52.811Z,5.60
2019-03-25T14:55:24.979Z,5.60
2019-03-25T14:57:56.865Z,5.80
2019-03-25T15:00:28.963Z,6.13
2019-03-25T15:03:00.992Z,5.83
2019-03-25T15:05:33.467Z,6.37
2019-03-25T15:08:05.566Z,6.03
2019-03-25T15:10:37.665Z,10.70
2019-03-25T15:13:09.756Z,7.00
2019-03-25T15:15:41.776Z,10.50
2019-03-25T15:18:15.685Z,8.23
2019-03-25T15:20:47.939Z,8.33
2019-03-25T15:23:19.889Z,10.67
2019-03-25T15:25:51.707Z,9.03
2019-03-25T15:28:23.631Z,7.83
2019-03-25T15:30:55.434Z,8.73
2019-03-25T15:33:31.226Z,7.53
2019-03-25T15:36:03.586Z,8.60
2019-03-25T15:38:35.576Z,14.73
2019-03-25T15:41:07.386Z,14.60
2019-03-25T15:43:40.346Z,7.00
2019-03-25T15:46:13.021Z,6.50
2019-03-25T15:48:45.058Z,6.20
2019-03-25T15:51:16.946Z,7.50
2019-03-25T15:53:49.096Z,6.27
2019-03-25T15:56:20.910Z,5.90
2019-03-25T15:58:53.266Z,6.33
2019-03-25T16:01:25.907Z,6.33
2019-03-25T16:03:57.960Z,6.60
2019-03-25T16:06:30.450Z,9.03
2019-03-25T16:09:02.496Z,6.93
2019-03-25T16:11:35.628Z,7.43
2019-03-25T16:14:07.556Z,7.90
2019-03-25T16:16:39.605Z,6.90
2019-03-25T16:19:11.764Z,7.70
2019-03-25T16:21:43.691Z,10.60
2019-03-25T16:24:15.858Z,11.23
2019-03-25T16:26:47.906Z,9.83
2019-03-25T16:29:19.754Z,7.53
2019-03-25T16:31:51.574Z,7.20
2019-03-25T16:34:27.861Z,7.20
2019-03-25T16:37:00.266Z,6.23
2019-03-25T16:39:32.212Z,7.93
2019-03-25T16:42:04.147Z,8.23
2019-03-25T16:44:36.337Z,8.90
2019-03-25T16:47:08.216Z,9.40
2019-03-25T16:49:40.226Z,7.87
2019-03-25T16:52:12.447Z,7.13
2019-03-25T16:54:45.276Z,8.33
2019-03-25T16:57:18.149Z,8.43
2019-03-25T16:59:50.007Z,9.27
2019-03-25T17:02:21.927Z,8.03
2019-03-25T17:04:53.956Z,7.97
2019-03-25T17:07:27.476Z,9.07
2019-03-25T17:09:59.465Z,8.40
2019-03-25T17:12:32.756Z,10.13
2019-03-25T17:15:06.428Z,9.50
2019-03-25T17:17:38.416Z,8.80
2019-03-25T17:20:10.290Z,9.33
2019-03-25T17:22:42.175Z,8.53
2019-03-25T17:25:14.137Z,9.30
2019-03-25T17:27:47.095Z,10.23
2019-03-25T17:30:18.960Z,9.03
2019-03-25T17:32:50.766Z,9.20
2019-03-25T17:35:23.996Z,9.07
2019-03-25T17:37:56.455Z,10.83
2019-03-25T17:40:28.715Z,10.10
2019-03-25T17:43:01.294Z,12.20
2019-03-25T17:45:33.384Z,11.30
2019-03-25T17:48:05.247Z,9.33
2019-03-25T17:50:37.150Z,7.53
2019-03-25T17:53:09.176Z,6.70
2019-03-25T17:55:41.095Z,7.13
2019-03-25T17:58:13.306Z,7.30
2019-03-25T18:00:49.029Z,8.10
2019-03-25T18:03:20.786Z,9.27
2019-03-25T18:05:52.646Z,8.03
2019-03-25T18:08:24.659Z,8.17
2019-03-25T18:10:56.599Z,8.00
2019-03-25T18:13:30.106Z,8.03
2019-03-25T18:16:03.252Z,8.00
2019-03-25T18:18:35.320Z,9.77
2019-03-25T18:21:07.237Z,9.33
2019-03-25T18:23:39.096Z,9.23
2019-03-25T18:26:11.536Z,7.87
2019-03-25T18:28:43.508Z,9.30
2019-03-25T18:31:15.546Z,7.87
2019-03-25T18:33:47.346Z,9.30
2019-03-25T18:36:26.166Z,9.83
2019-03-25T18:38:58.476Z,10.40
2019-03-25T18:41:30.535Z,11.10
2019-03-25T18:44:02.481Z,10.83
2019-03-25T18:46:34.768Z,9.83
2019-03-25T18:49:06.785Z,9.80
2019-03-25T18:51:38.739Z,11.07
2019-03-25T18:54:10.626Z,11.67
2019-03-25T18:56:42.473Z,12.77
2019-03-25T18:59:14.362Z,15.47
2019-03-25T19:01:54.469Z,18.10
2019-03-25T19:04:20.190Z,21.33
2019-03-25T19:06:52.315Z,26.73
2019-03-25T19:09:25.893Z,20.73
2019-03-25T19:11:57.929Z,31.10
2019-03-25T19:14:29.941Z,30.80
2019-03-25T19:17:01.956Z,29.20
2019-03-25T19:19:34.167Z,23.33
2019-03-25T19:22:06.136Z,22.23
2019-03-25T19:24:37.928Z,21.83
2019-03-25T19:27:10.076Z,20.73
2019-03-25T19:29:42.010Z,20.10
2019-03-25T19:32:14.291Z,19.17
2019-03-25T19:34:46.170Z,25.67
2019-03-25T19:37:19.257Z,19.13
2019-03-25T19:39:51.588Z,18.63
2019-03-25T19:42:23.609Z,18.43
2019-03-25T19:44:55.631Z,16.87
2019-03-25T19:47:27.716Z,19.70
2019-03-25T19:49:59.951Z,19.60
2019-03-25T19:52:31.986Z,17.63
2019-03-25T19:55:04.605Z,18.27
2019-03-25T19:57:36.563Z,17.27
2019-03-25T20:00:09.871Z,18.77
2019-03-25T20:02:41.895Z,21.63
2019-03-25T20:05:14.015Z,23.13
2019-03-25T20:07:46.287Z,22.67
2019-03-25T20:10:27.464Z,29.80
2019-03-25T20:12:59.937Z,41.40
2019-03-25T20:15:44.959Z,20.90
2019-03-25T20:18:05.993Z,19.87
2019-03-25T20:20:37.776Z,18.73
2019-03-25T20:23:09.637Z,19.17
2019-03-25T20:25:41.725Z,19.20
2019-03-25T20:28:13.717Z,19.70
2019-03-25T20:30:45.676Z,19.67
2019-03-25T20:33:17.983Z,19.00
2019-03-25T20:35:50.106Z,19.57
2019-03-25T20:38:22.552Z,20.67
2019-03-25T20:40:54.897Z,20.80
2019-03-25T20:43:27.116Z,20.53
2019-03-25T20:45:59.139Z,20.50
2019-03-25T20:48:31.485Z,22.20
2019-03-25T20:51:03.574Z,22.93
2019-03-25T20:53:35.535Z,22.73
2019-03-25T20:56:07.515Z,24.13
2019-03-25T20:58:39.532Z,23.40
2019-03-25T21:01:11.664Z,21.40
2019-03-25T21:03:43.813Z,22.27
2019-03-25T21:06:15.938Z,22.10
2019-03-25T21:08:48.155Z,24.23
2019-03-25T21:11:20.616Z,21.73
2019-03-25T21:13:52.799Z,22.07
2019-03-25T21:16:24.617Z,26.67
2019-03-25T21:18:56.673Z,37.93
2019-03-25T21:21:28.591Z,31.47
2019-03-25T21:24:00.558Z,29.27
2019-03-25T21:26:32.535Z,27.13
2019-03-25T21:29:04.378Z,27.10
2019-03-25T21:31:39.114Z,27.33
2019-03-25T21:34:11.086Z,29.13
2019-03-25T21:36:44.047Z,31.57
2019-03-25T21:39:18.380Z,31.00
2019-03-25T21:41:50.914Z,31.20
2019-03-25T21:44:23.206Z,29.37
2019-03-25T21:46:55.140Z,30.27
2019-03-25T21:49:27.148Z,26.83
2019-03-25T21:51:59.388Z,26.80
2019-03-25T21:54:31.349Z,28.10
2019-03-25T21:57:03.251Z,28.27
2019-03-25T21:59:35.397Z,23.90
2019-03-25T22:02:07.606Z,23.30
2019-03-25T22:04:39.465Z,22.63
2019-03-25T22:07:11.306Z,21.83
2019-03-25T22:09:43.236Z,22.20
2019-03-25T22:12:15.706Z,23.33
2019-03-25T22:14:47.756Z,25.63
2019-03-25T22:17:19.576Z,23.37
2019-03-25T22:19:51.434Z,25.00
2019-03-25T22:22:23.376Z,24.40
2019-03-25T22:24:55.766Z,25.00
2019-03-25T22:27:27.592Z,24.07
2019-03-25T22:29:59.786Z,23.43
2019-03-25T22:32:31.678Z,24.27
2019-03-25T22:35:04.986Z,24.10
2019-03-25T22:37:36.796Z,32.70
2019-03-25T22:40:10.015Z,31.97
2019-03-25T22:42:42.146Z,26.73
2019-03-25T22:45:17.617Z,26.33
2019-03-25T22:47:49.376Z,25.17
2019-03-25T22:50:28.862Z,26.80
2019-03-25T22:53:00.635Z,27.03
2019-03-25T22:55:32.466Z,30.40
2019-03-25T22:58:04.388Z,36.20
2019-03-25T23:00:41.066Z,33.60
2019-03-25T23:03:13.166Z,33.13
2019-03-25T23:05:45.156Z,31.67
2019-03-25T23:08:17.008Z,28.60
2019-03-25T23:10:48.896Z,27.93
2019-03-25T23:13:21.346Z,27.87
2019-03-25T23:15:53.217Z,25.10
2019-03-25T23:18:25.056Z,25.47
2019-03-25T23:20:56.916Z,24.10
2019-03-25T23:23:28.703Z,24.77
2019-03-25T23:26:00.986Z,23.73
2019-03-25T23:28:32.726Z,24.00
2019-03-25T23:31:04.737Z,23.33
2019-03-25T23:33:36.788Z,22.97
2019-03-25T23:36:08.734Z,22.73
2019-03-25T23:38:40.677Z,23.07
2019-03-25T23:41:18.455Z,25.27
2019-03-25T23:43:51.096Z,23.90
2019-03-25T23:46:22.977Z,23.90
2019-03-25T23:48:54.767Z,21.97
2019-03-25T23:51:26.576Z,22.40
2019-03-25T23:54:11.518Z,22.83
2019-03-25T23:56:43.418Z,21.33
2019-03-25T23:59:15.195Z,21.37
